This is the latest recevied weather packets stored in our database for station/object KD9YTS-13. If no packets are shown the sender has not sent any weather packets the latest 1 day(s).
| Time | Temp. | Humidity | Pressure | Rain* | Wind** | Luminosity | Snow |
|---|---|---|---|---|---|---|---|
| 1778020582 | -17.78° C | 100% | - | 0 mm | 2.68 m/s, 0° | - | - |
| 1778019382 | -17.78° C | 100% | - | 0 mm | 2.24 m/s, 320° | - | - |
| 1778018182 | -17.78° C | 100% | - | 0 mm | 1.79 m/s, 261° | - | - |
| 1778016982 | -17.78° C | 100% | - | 0 mm | 2.68 m/s, 289° | - | - |
| 1778015782 | 8.89° C | 3% | - | 0 mm | 2.68 m/s, 0° | - | - |
| 1778014582 | -17.78° C | 100% | - | 0 mm | 3.58 m/s, 0° | - | - |
| 1778013382 | -17.78° C | 100% | - | 0 mm | 2.24 m/s, 0° | - | - |
| 1778012182 | -17.78° C | 100% | - | 0 mm | 1.79 m/s, 318° | - | - |
| 1778010982 | 10° C | 3% | - | 0 mm | 3.13 m/s, 0° | - | - |
| 1778009782 | 9.44° C | 3% | - | 0 mm | 4.92 m/s, 0° | - | - |
| 1778008582 | -17.78° C | 100% | - | 0 mm | 1.79 m/s, 0° | - | - |
| 1778007382 | -17.78° C | 100% | - | 0 mm | 2.68 m/s, 0° | - | - |
| 1778006182 | -17.78° C | 100% | - | 0 mm | 4.92 m/s, 318° | - | - |
| 1778004982 | 8.89° C | 3% | - | 0 mm | 6.26 m/s, 0° | - | - |
| 1778003782 | 8.89° C | 3% | - | 0 mm | 4.92 m/s, 0° | - | - |
| 1778002583 | -17.78° C | 100% | - | 0 mm | 1.79 m/s, 0° | - | - |
| 1778001382 | -17.78° C | 100% | - | 0 mm | 4.02 m/s, 279° | - | - |
| 1778000182 | -17.78° C | 100% | - | 0 mm | 2.68 m/s, 319° | - | - |
| 1777998982 | 8.89° C | 4% | - | 0 mm | 4.92 m/s, 0° | - | - |
| 1777997782 | -17.78° C | 100% | - | 0 mm | 4.92 m/s, 0° | - | - |
| 1777996582 | -17.78° C | 100% | - | 0 mm | 4.02 m/s, 0° | - | - |
| 1777995382 | -17.78° C | 100% | - | 0 mm | 5.36 m/s, 317° | - | - |
| 1777994183 | 8.33° C | 4% | - | 0 mm | 2.68 m/s, 0° | - | - |
| 1777992982 | 7.78° C | 4% | - | 0 mm | 4.02 m/s, 0° | - | - |
| 1777991784 | -17.78° C | 100% | - | 0 mm | 4.92 m/s, 0° | - | - |
* Rain latest hour (hover to see other rain measurements)
** Current wind speed in m/s (hover to see current wind gust speed)